Time;durP1;ratioP1;P1;durP2;ratioP2;P2;SDS_P1;SDS_P2;PMS_P1;PMS_P2;Temp;Humidity;BMP_temperature;BMP_pressure;BME280_temperature;BME280_humidity;BME280_pressure;Samples;Min_cycle;Max_cycle;Signal;HPM_P1;HPM_P2
2021/10/22 00:00:39;;;;;;;2.65;1.63;;;10.40;99.90;;;;;;5056227;28;20322;-69
2021/10/22 00:03:06;;;;;;;1.60;1.50;;;10.40;99.90;;;;;;5056267;28;20294;-69
2021/10/22 00:05:34;;;;;;;0.95;0.95;;;10.40;99.90;;;;;;5056370;28;20231;-69
2021/10/22 00:08:02;;;;;;;1.95;1.55;;;10.30;99.90;;;;;;5056052;28;20207;-69
2021/10/22 00:10:29;;;;;;;1.30;1.20;;;10.30;99.90;;;;;;5055334;28;20639;-68
2021/10/22 00:12:56;;;;;;;1.48;1.17;;;10.30;99.90;;;;;;5055738;28;20210;-68
2021/10/22 00:15:23;;;;;;;1.52;1.25;;;10.30;99.90;;;;;;5055762;28;20250;-67
2021/10/22 00:17:50;;;;;;;1.40;1.30;;;10.30;99.90;;;;;;5055620;28;20298;-69
2021/10/22 00:20:17;;;;;;;1.63;1.35;;;10.20;99.90;;;;;;5055098;28;20223;-68
2021/10/22 00:22:45;;;;;;;1.80;1.40;;;10.20;99.90;;;;;;5055434;28;20207;-68
2021/10/22 00:25:12;;;;;;;1.35;1.25;;;10.20;99.90;;;;;;5055475;28;20307;-68
2021/10/22 00:27:39;;;;;;;1.25;1.15;;;10.20;99.90;;;;;;5055429;28;20200;-68
2021/10/22 00:30:07;;;;;;;2.20;1.45;;;10.20;99.90;;;;;;5055169;28;20306;-67
2021/10/22 00:32:35;;;;;;;1.40;1.30;;;10.10;99.90;;;;;;5055456;28;20203;-68
2021/10/22 00:35:02;;;;;;;1.45;1.30;;;10.10;99.90;;;;;;5055502;28;20235;-69
2021/10/22 00:37:29;;;;;;;1.92;1.45;;;10.10;99.90;;;;;;5055473;28;20210;-67
2021/10/22 00:39:59;;;;;;;1.20;1.10;;;10.10;99.90;;;;;;5054991;28;20304;-68
2021/10/22 00:42:26;;;;;;;1.30;1.10;;;10.10;99.90;;;;;;5055178;28;20267;-67
2021/10/22 00:44:54;;;;;;;2.25;1.10;;;10.10;99.90;;;;;;5055565;28;20207;-67
2021/10/22 00:47:21;;;;;;;1.48;1.38;;;10.10;99.90;;;;;;5054837;28;20227;-67
2021/10/22 00:49:48;;;;;;;1.58;1.48;;;10.00;99.90;;;;;;5055281;28;20306;-67
2021/10/22 00:52:20;;;;;;;1.02;1.02;;;10.10;99.90;;;;;;5055397;28;20378;-70
2021/10/22 00:54:49;;;;;;;1.35;1.25;;;10.00;99.90;;;;;;5054253;28;20203;-71
2021/10/22 00:57:17;;;;;;;1.33;1.23;;;10.00;99.90;;;;;;5055649;28;20203;-71
2021/10/22 00:59:45;;;;;;;1.15;1.05;;;10.00;99.90;;;;;;5055341;28;20223;-70
2021/10/22 01:02:12;;;;;;;1.27;1.15;;;10.00;99.90;;;;;;5055008;28;20210;-70
2021/10/22 01:04:39;;;;;;;1.45;1.33;;;10.00;99.90;;;;;;5055790;28;20294;-71
2021/10/22 01:07:06;;;;;;;2.30;1.33;;;10.10;99.90;;;;;;5055805;28;20203;-71
2021/10/22 01:09:33;;;;;;;3.92;1.27;;;10.10;99.90;;;;;;5055606;28;20219;-71
2021/10/22 01:12:01;;;;;;;1.92;1.20;;;10.10;99.90;;;;;;5055376;28;20280;-71
2021/10/22 01:14:30;;;;;;;2.60;1.42;;;10.00;99.90;;;;;;5055234;28;20208;-72
2021/10/22 01:16:57;;;;;;;1.55;1.15;;;10.00;99.90;;;;;;5055567;28;20204;-72
2021/10/22 01:19:24;;;;;;;1.25;1.15;;;10.00;99.90;;;;;;5055926;28;20223;-72
2021/10/22 01:21:52;;;;;;;1.70;1.00;;;10.00;99.90;;;;;;5054764;28;20199;-72
2021/10/22 01:24:19;;;;;;;3.00;1.27;;;10.00;99.90;;;;;;5054960;28;20223;-71
2021/10/22 01:26:46;;;;;;;1.33;1.23;;;10.00;99.90;;;;;;5054958;28;20210;-71
2021/10/22 01:29:13;;;;;;;1.00;0.90;;;9.90;99.90;;;;;;5054891;28;20262;-70
2021/10/22 01:31:40;;;;;;;4.13;1.48;;;10.00;99.90;;;;;;5054938;28;20214;-72
2021/10/22 01:34:07;;;;;;;1.40;1.08;;;10.10;99.90;;;;;;5055970;28;20289;-69
2021/10/22 01:36:34;;;;;;;1.55;1.23;;;10.10;99.90;;;;;;5055511;28;20295;-70
2021/10/22 01:39:04;;;;;;;1.13;1.00;;;10.10;99.90;;;;;;5055498;28;20219;-70
2021/10/22 01:41:31;;;;;;;1.58;1.20;;;10.10;99.90;;;;;;5055080;28;20199;-71
2021/10/22 01:44:00;;;;;;;1.30;1.20;;;10.10;99.90;;;;;;5055946;28;20666;-70
2021/10/22 01:46:27;;;;;;;1.85;1.35;;;10.20;99.90;;;;;;5056204;28;20218;-70
2021/10/22 01:48:54;;;;;;;2.50;1.25;;;10.10;99.90;;;;;;5055756;28;20626;-70
2021/10/22 01:51:22;;;;;;;4.07;1.50;;;10.00;99.90;;;;;;5055731;28;20199;-69
2021/10/22 01:53:49;;;;;;;2.70;1.25;;;10.10;99.90;;;;;;5056129;28;20249;-70
2021/10/22 01:56:17;;;;;;;2.72;1.50;;;10.10;99.90;;;;;;5056242;28;20200;-70
2021/10/22 01:58:44;;;;;;;3.35;1.40;;;10.10;99.90;;;;;;5055428;28;20207;-70
2021/10/22 02:01:11;;;;;;;1.67;1.10;;;10.10;99.90;;;;;;5055487;28;20227;-70
2021/10/22 02:03:37;;;;;;;1.65;1.17;;;10.10;99.90;;;;;;5055841;28;20294;-70
2021/10/22 02:06:04;;;;;;;2.25;1.20;;;10.10;99.90;;;;;;5055506;28;20628;-70
2021/10/22 02:08:31;;;;;;;1.25;1.08;;;10.10;99.90;;;;;;5055986;28;20230;-70
2021/10/22 02:10:58;;;;;;;2.17;1.30;;;10.00;99.90;;;;;;5055485;28;20230;-70
2021/10/22 02:13:26;;;;;;;1.30;1.20;;;10.00;99.90;;;;;;5054932;28;20204;-69
2021/10/22 02:15:53;;;;;;;1.75;0.95;;;10.00;99.90;;;;;;5054721;28;20666;-70
2021/10/22 02:18:20;;;;;;;1.90;1.08;;;9.90;99.90;;;;;;5054874;28;20254;-70
2021/10/22 02:20:47;;;;;;;2.80;1.60;;;9.90;99.90;;;;;;5054103;28;20227;-70
2021/10/22 02:23:14;;;;;;;1.30;1.08;;;9.90;99.90;;;;;;5054348;28;20207;-70
2021/10/22 02:25:40;;;;;;;1.73;0.98;;;9.80;99.90;;;;;;5054674;28;20302;-70
2021/10/22 02:28:07;;;;;;;1.20;1.10;;;9.70;99.90;;;;;;5054670;28;20207;-70
2021/10/22 02:30:35;;;;;;;4.40;1.90;;;9.70;99.90;;;;;;5054717;28;20739;-70
2021/10/22 02:33:02;;;;;;;2.08;1.90;;;9.70;99.90;;;;;;5054411;28;20207;-70
2021/10/22 02:35:29;;;;;;;5.65;1.35;;;9.60;99.90;;;;;;5054327;28;20741;-70
2021/10/22 02:37:56;;;;;;;3.55;1.35;;;9.70;99.90;;;;;;5054790;28;20210;-70
2021/10/22 02:40:23;;;;;;;1.10;1.00;;;9.70;99.90;;;;;;5054146;28;20310;-70
2021/10/22 02:42:50;;;;;;;2.15;1.40;;;9.60;99.90;;;;;;5054311;28;20297;-70
2021/10/22 02:45:17;;;;;;;3.75;1.00;;;9.70;99.90;;;;;;5054454;28;20207;-70
2021/10/22 02:47:46;;;;;;;1.75;1.10;;;9.60;99.90;;;;;;5054501;28;20206;-70
2021/10/22 02:50:13;;;;;;;2.47;0.98;;;9.60;99.90;;;;;;5054175;28;20648;-70
2021/10/22 02:52:40;;;;;;;2.38;1.40;;;9.50;99.90;;;;;;5053908;28;20747;-70
2021/10/22 02:55:07;;;;;;;2.13;1.23;;;9.50;99.90;;;;;;5053847;28;20298;-70
2021/10/22 02:57:34;;;;;;;1.25;1.15;;;9.50;99.90;;;;;;5054129;28;20561;-70
2021/10/22 03:00:01;;;;;;;2.47;1.33;;;9.40;99.90;;;;;;5053687;28;20314;-69
2021/10/22 03:02:28;;;;;;;1.60;1.10;;;9.40;99.90;;;;;;5053746;28;20654;-69
2021/10/22 03:04:57;;;;;;;3.47;1.30;;;9.40;99.90;;;;;;5054456;28;20656;-70
2021/10/22 03:07:23;;;;;;;1.88;1.15;;;9.40;99.90;;;;;;5053980;28;20199;-70
2021/10/22 03:09:50;;;;;;;3.33;1.23;;;9.40;99.90;;;;;;5053505;28;20228;-70
2021/10/22 03:12:17;;;;;;;3.10;1.10;;;9.40;99.90;;;;;;5053735;28;20203;-69
2021/10/22 03:14:44;;;;;;;2.30;1.30;;;9.30;99.90;;;;;;5053935;28;20598;-70
2021/10/22 03:17:11;;;;;;;3.35;1.33;;;9.40;99.90;;;;;;5053852;28;20302;-70
2021/10/22 03:19:38;;;;;;;2.00;0.88;;;9.30;99.90;;;;;;5057747;28;20229;-70
2021/10/22 03:22:06;;;;;;;3.38;0.90;;;9.30;99.90;;;;;;5057668;28;20290;-69
2021/10/22 03:24:33;;;;;;;2.35;1.25;;;9.30;99.90;;;;;;5057718;28;20364;-70
2021/10/22 03:27:00;;;;;;;2.25;1.00;;;9.20;99.90;;;;;;5057618;28;20209;-70
2021/10/22 03:29:27;;;;;;;1.98;1.00;;;9.10;99.90;;;;;;5057355;28;20227;-69
2021/10/22 03:31:54;;;;;;;2.97;1.33;;;9.10;99.90;;;;;;5057395;28;20282;-69
2021/10/22 03:34:21;;;;;;;2.17;1.25;;;9.10;99.90;;;;;;5057848;28;20658;-70
2021/10/22 03:36:48;;;;;;;1.75;0.82;;;9.00;99.90;;;;;;5057847;28;20211;-70
2021/10/22 03:39:16;;;;;;;4.68;1.30;;;9.00;99.90;;;;;;5057905;28;20223;-70
2021/10/22 03:41:43;;;;;;;3.97;1.10;;;9.00;99.90;;;;;;5057619;28;20216;-69
2021/10/22 03:44:10;;;;;;;4.35;1.10;;;9.00;99.90;;;;;;5057431;28;20209;-70
2021/10/22 03:46:37;;;;;;;0.90;0.90;;;9.00;99.90;;;;;;5057854;28;20227;-70
2021/10/22 03:49:04;;;;;;;2.40;1.08;;;8.90;99.90;;;;;;5057028;28;20220;-70
2021/10/22 03:51:31;;;;;;;5.30;1.25;;;8.90;99.90;;;;;;5057121;28;20290;-69
2021/10/22 03:53:58;;;;;;;4.22;1.38;;;8.90;99.90;;;;;;5057419;28;20208;-70
2021/10/22 03:56:26;;;;;;;1.65;1.10;;;8.80;99.90;;;;;;5057155;28;20199;-70
2021/10/22 03:58:53;;;;;;;2.17;1.30;;;8.80;99.90;;;;;;5057055;28;20232;-70
2021/10/22 04:01:20;;;;;;;5.25;1.23;;;8.70;99.90;;;;;;5056622;28;20719;-70
2021/10/22 04:03:47;;;;;;;1.83;1.20;;;8.70;99.90;;;;;;5057153;28;20302;-70
2021/10/22 04:06:14;;;;;;;11.27;1.92;;;8.70;99.90;;;;;;5058130;28;20207;-70
2021/10/22 04:08:41;;;;;;;1.65;1.13;;;8.70;99.90;;;;;;5058649;28;20214;-70
2021/10/22 04:11:08;;;;;;;5.32;1.38;;;8.70;99.90;;;;;;5057402;28;20294;-69
2021/10/22 04:13:36;;;;;;;4.15;1.58;;;8.60;99.90;;;;;;5056997;28;20203;-70
2021/10/22 04:16:03;;;;;;;8.30;2.53;;;8.60;99.90;;;;;;5057217;28;20203;-70
2021/10/22 04:18:30;;;;;;;2.70;1.50;;;8.60;99.90;;;;;;5056764;28;20215;-70
2021/10/22 04:20:57;;;;;;;1.13;1.00;;;8.60;99.90;;;;;;5056829;28;20310;-70
2021/10/22 04:23:24;;;;;;;2.03;1.80;;;8.50;99.90;;;;;;5056363;28;20358;-70
2021/10/22 04:25:51;;;;;;;4.35;1.40;;;8.50;99.90;;;;;;5056597;28;20203;-70
2021/10/22 04:28:18;;;;;;;1.60;1.40;;;8.50;99.90;;;;;;5056568;28;20230;-70
2021/10/22 04:30:46;;;;;;;4.00;1.60;;;8.40;99.90;;;;;;5056650;28;20307;-70
2021/10/22 04:33:13;;;;;;;2.72;1.40;;;8.40;99.90;;;;;;5055999;28;20692;-69
2021/10/22 04:35:40;;;;;;;2.03;1.55;;;8.40;99.90;;;;;;5056403;28;20299;-70
2021/10/22 04:41:05;;;;;;;2.13;1.35;;;8.30;99.90;;;;;;5014711;28;20224;-69
2021/10/22 04:43:32;;;;;;;2.55;1.10;;;8.30;99.90;;;;;;5014567;28;20205;-70
2021/10/22 04:46:01;;;;;;;1.58;1.15;;;8.30;99.90;;;;;;5032867;28;20209;-70
2021/10/22 04:48:28;;;;;;;4.13;1.40;;;8.30;99.90;;;;;;5056614;28;20203;-69
2021/10/22 04:50:55;;;;;;;2.33;1.30;;;8.30;99.90;;;;;;5056494;28;20290;-70
2021/10/22 04:53:26;;;;;;;3.15;1.77;;;8.20;99.90;;;;;;5056118;28;20598;-70
2021/10/22 04:55:54;;;;;;;1.38;1.27;;;8.20;99.90;;;;;;5056727;28;20303;-70
2021/10/22 04:58:21;;;;;;;2.22;1.15;;;8.20;99.90;;;;;;5056922;28;20203;-70
2021/10/22 05:00:47;;;;;;;0.80;0.80;;;8.20;99.90;;;;;;5056579;28;20318;-70
2021/10/22 05:03:16;;;;;;;2.55;1.70;;;8.10;99.90;;;;;;5056318;28;20212;-69
2021/10/22 05:05:42;;;;;;;1.73;1.20;;;8.10;99.90;;;;;;5056900;28;20294;-70
2021/10/22 05:08:09;;;;;;;4.03;2.17;;;8.10;99.90;;;;;;5056605;28;20249;-70
2021/10/22 05:10:36;;;;;;;1.70;1.40;;;8.00;99.90;;;;;;5056830;28;20276;-70
2021/10/22 05:13:03;;;;;;;2.15;1.08;;;7.90;99.90;;;;;;5056228;28;20302;-69
2021/10/22 05:15:30;;;;;;;2.85;1.10;;;7.90;99.90;;;;;;5056418;28;20298;-70
2021/10/22 05:17:57;;;;;;;0.98;0.98;;;7.90;99.90;;;;;;5056935;28;20645;-70
2021/10/22 05:20:25;;;;;;;1.98;1.20;;;7.90;99.90;;;;;;5057130;28;20286;-69
2021/10/22 05:22:52;;;;;;;2.35;1.27;;;7.90;99.90;;;;;;5056597;28;20633;-69
2021/10/22 05:25:19;;;;;;;1.42;1.10;;;7.90;99.90;;;;;;5056651;28;20310;-70
2021/10/22 05:27:46;;;;;;;1.23;1.00;;;7.90;99.90;;;;;;5056552;28;20200;-70
2021/10/22 05:30:14;;;;;;;5.22;1.95;;;7.80;99.90;;;;;;5056238;28;20323;-70
2021/10/22 05:32:42;;;;;;;3.63;1.90;;;7.80;99.90;;;;;;5056550;28;20210;-71
2021/10/22 05:35:09;;;;;;;2.58;1.15;;;7.80;99.90;;;;;;5056212;28;20294;-70
2021/10/22 05:37:38;;;;;;;2.72;1.83;;;7.80;99.90;;;;;;5056319;28;20210;-70
2021/10/22 05:40:06;;;;;;;1.52;1.30;;;7.80;99.90;;;;;;5055127;28;20223;-70
2021/10/22 05:42:33;;;;;;;2.38;1.35;;;7.80;99.90;;;;;;5056108;28;20250;-70
2021/10/22 05:45:00;;;;;;;2.40;1.33;;;7.80;99.90;;;;;;5056555;28;20298;-70
2021/10/22 05:47:27;;;;;;;2.30;1.50;;;7.80;99.90;;;;;;5056470;28;20203;-70
2021/10/22 05:49:53;;;;;;;5.20;1.52;;;7.80;99.90;;;;;;5056158;28;20227;-71
2021/10/22 05:52:20;;;;;;;2.67;1.77;;;7.70;99.90;;;;;;5055664;28;20310;-70
2021/10/22 05:54:49;;;;;;;4.38;3.55;;;7.70;99.90;;;;;;5055876;28;20203;-71
2021/10/22 05:57:15;;;;;;;5.20;2.58;;;7.70;99.90;;;;;;5055422;28;20214;-70
2021/10/22 05:59:42;;;;;;;2.55;1.85;;;7.70;99.90;;;;;;5055297;28;20317;-70
2021/10/22 06:02:09;;;;;;;2.58;1.23;;;7.70;99.90;;;;;;5055145;28;20584;-70
2021/10/22 06:04:37;;;;;;;2.28;1.50;;;7.70;99.90;;;;;;5054988;28;20210;-70
2021/10/22 06:07:04;;;;;;;3.10;1.20;;;7.70;99.90;;;;;;5054793;28;20218;-71
2021/10/22 06:09:31;;;;;;;2.20;1.15;;;7.70;99.90;;;;;;5054906;28;20255;-71
2021/10/22 06:11:59;;;;;;;1.27;0.93;;;7.60;99.90;;;;;;5054549;28;20557;-70
2021/10/22 06:14:26;;;;;;;2.67;1.42;;;7.70;99.90;;;;;;5055028;28;20245;-71
2021/10/22 06:16:53;;;;;;;3.38;1.80;;;7.70;99.90;;;;;;5054849;28;20288;-71
2021/10/22 06:19:26;;;;;;;2.85;1.52;;;7.70;99.90;;;;;;5054747;28;20334;-70
2021/10/22 06:22:07;;;;;;;3.47;1.67;;;7.70;99.90;;;;;;5054564;28;20223;-70
2021/10/22 06:24:34;;;;;;;2.85;1.67;;;7.80;99.90;;;;;;5054723;28;20214;-71
2021/10/22 06:27:02;;;;;;;2.13;1.40;;;7.80;99.90;;;;;;5054479;28;20233;-71
2021/10/22 06:29:30;;;;;;;2.00;1.45;;;7.80;99.90;;;;;;5054519;28;20230;-71
2021/10/22 06:31:57;;;;;;;3.33;1.50;;;7.80;99.90;;;;;;5054377;28;20203;-70
2021/10/22 06:34:26;;;;;;;2.05;1.17;;;7.80;99.90;;;;;;5054540;28;20617;-71
2021/10/22 06:36:53;;;;;;;1.35;1.25;;;7.90;99.90;;;;;;5054515;28;20199;-70
2021/10/22 06:39:20;;;;;;;2.38;1.40;;;7.90;99.90;;;;;;5054206;28;20319;-71
2021/10/22 06:41:47;;;;;;;2.08;1.80;;;7.90;99.90;;;;;;5053945;28;20700;-70
2021/10/22 06:44:17;;;;;;;2.53;2.13;;;7.90;99.90;;;;;;5054239;28;20234;-71
2021/10/22 06:46:44;;;;;;;3.38;1.70;;;7.90;99.90;;;;;;5054401;28;20297;-71
2021/10/22 06:49:11;;;;;;;4.03;1.45;;;8.00;99.90;;;;;;5054111;28;20231;-71
2021/10/22 06:51:38;;;;;;;4.30;1.25;;;8.00;99.90;;;;;;5054666;28;20195;-71
2021/10/22 06:54:04;;;;;;;2.88;1.42;;;8.00;99.90;;;;;;5054423;28;20298;-71
2021/10/22 06:56:32;;;;;;;4.78;1.33;;;8.00;99.90;;;;;;5054630;28;20234;-71
2021/10/22 06:58:59;;;;;;;3.45;1.52;;;8.00;99.90;;;;;;5054475;28;20586;-71
2021/10/22 07:01:27;;;;;;;1.63;0.98;;;8.00;99.90;;;;;;5054209;28;20237;-70
2021/10/22 07:03:54;;;;;;;1.70;1.60;;;8.10;99.90;;;;;;5054238;28;20261;-71
2021/10/22 07:09:05;;;;;;;3.08;1.30;;;8.10;99.90;;;;;;5054484;28;20222;-71
2021/10/22 07:11:32;;;;;;;3.95;1.92;;;8.10;99.90;;;;;;5054310;28;20557;-70
2021/10/22 07:13:59;;;;;;;6.78;3.30;;;8.10;99.90;;;;;;5054367;28;20203;-71
2021/10/22 07:16:29;;;;;;;5.78;2.28;;;8.10;99.90;;;;;;5054301;28;20203;-71
2021/10/22 07:18:56;;;;;;;3.55;1.80;;;8.10;99.90;;;;;;5054165;28;20219;-71
2021/10/22 07:21:23;;;;;;;3.25;1.73;;;8.10;99.90;;;;;;5053602;28;20622;-70
2021/10/22 07:23:51;;;;;;;2.05;1.02;;;8.20;99.90;;;;;;5053724;28;20638;-71
2021/10/22 07:26:20;;;;;;;4.30;2.00;;;8.20;99.90;;;;;;5053949;28;20618;-70
2021/10/22 07:28:48;;;;;;;2.58;1.70;;;8.20;99.90;;;;;;5054122;28;20205;-71
2021/10/22 07:31:15;;;;;;;2.42;1.25;;;8.20;99.90;;;;;;5053678;28;20290;-70
2021/10/22 07:33:43;;;;;;;3.60;1.38;;;8.20;99.90;;;;;;5053954;28;20296;-71
2021/10/22 07:36:12;;;;;;;8.85;4.63;;;8.20;99.90;;;;;;5053886;28;20281;-71
2021/10/22 07:38:41;;;;;;;7.43;2.60;;;8.20;99.90;;;;;;5054324;28;20204;-70
2021/10/22 07:41:08;;;;;;;4.43;1.60;;;8.20;99.90;;;;;;5053866;28;20298;-70
2021/10/22 07:43:36;;;;;;;1.50;1.40;;;8.20;99.90;;;;;;5054086;28;20210;-71
2021/10/22 07:46:03;;;;;;;2.28;1.52;;;8.20;99.90;;;;;;5054225;28;20290;-71
2021/10/22 07:48:30;;;;;;;3.30;1.70;;;8.30;99.90;;;;;;5054443;28;20275;-71
2021/10/22 07:50:59;;;;;;;6.72;1.85;;;8.30;99.90;;;;;;5053637;28;20203;-71
2021/10/22 07:53:25;;;;;;;4.00;1.20;;;8.30;99.90;;;;;;5053247;28;20678;-71
2021/10/22 07:55:52;;;;;;;2.45;1.45;;;8.30;99.90;;;;;;5053359;28;20294;-71
2021/10/22 07:58:19;;;;;;;1.70;0.90;;;8.30;99.90;;;;;;5054300;28;20562;-71
2021/10/22 08:00:46;;;;;;;3.08;1.45;;;8.40;99.90;;;;;;5054573;28;20220;-71
2021/10/22 08:03:13;;;;;;;4.47;1.60;;;8.40;99.90;;;;;;5054428;28;20313;-70
2021/10/22 08:05:40;;;;;;;2.58;0.90;;;8.40;99.90;;;;;;5058550;28;20221;-70
2021/10/22 08:08:09;;;;;;;1.27;1.17;;;8.50;99.90;;;;;;5058044;28;20654;-71
2021/10/22 08:10:36;;;;;;;7.15;3.30;;;8.50;99.90;;;;;;5058503;28;20234;-71
2021/10/22 08:13:05;;;;;;;4.55;1.75;;;8.50;99.90;;;;;;5057740;28;20200;-71
2021/10/22 08:15:32;;;;;;;6.32;1.90;;;8.60;99.90;;;;;;5059071;28;20217;-71
2021/10/22 08:17:59;;;;;;;1.95;1.30;;;8.60;99.90;;;;;;5057832;28;20213;-71
2021/10/22 08:20:27;;;;;;;6.28;1.33;;;8.60;99.90;;;;;;5057934;28;20251;-71
2021/10/22 08:22:54;;;;;;;3.58;1.00;;;8.60;99.90;;;;;;5057553;28;20219;-70
2021/10/22 08:25:23;;;;;;;3.80;1.13;;;8.60;99.90;;;;;;5057603;28;20219;-71
2021/10/22 08:27:51;;;;;;;4.75;1.10;;;8.60;99.90;;;;;;5057756;28;20215;-71
2021/10/22 08:30:22;;;;;;;2.30;0.77;;;8.60;99.90;;;;;;5057615;28;20230;-70
2021/10/22 08:32:51;;;;;;;5.72;1.60;;;8.60;99.90;;;;;;5057142;28;20649;-70
2021/10/22 08:35:19;;;;;;;3.90;1.33;;;8.70;99.90;;;;;;5057748;28;20199;-71
2021/10/22 08:37:47;;;;;;;1.60;0.90;;;8.70;99.90;;;;;;5057659;28;20210;-71
2021/10/22 08:40:15;;;;;;;1.35;0.80;;;8.70;99.90;;;;;;5057573;28;20579;-71
2021/10/22 08:42:44;;;;;;;1.25;0.90;;;8.90;99.90;;;;;;5056922;28;20316;-70
2021/10/22 08:45:12;;;;;;;2.53;0.93;;;9.00;99.90;;;;;;5057300;28;20211;-71
2021/10/22 08:47:41;;;;;;;1.25;0.90;;;9.00;99.90;;;;;;5057349;28;20208;-71
2021/10/22 08:50:10;;;;;;;1.23;0.80;;;9.00;99.90;;;;;;5057664;28;20223;-71
2021/10/22 08:52:38;;;;;;;1.40;1.23;;;9.10;99.90;;;;;;5057152;28;20209;-70
2021/10/22 08:55:06;;;;;;;2.67;1.50;;;9.10;99.90;;;;;;5057350;28;20206;-71
2021/10/22 08:57:36;;;;;;;2.00;1.10;;;9.10;99.90;;;;;;5056622;28;20204;-70
2021/10/22 09:00:05;;;;;;;1.17;0.77;;;9.20;99.90;;;;;;5057455;28;20623;-71
2021/10/22 09:02:31;;;;;;;4.15;1.10;;;9.20;99.90;;;;;;5057818;28;20228;-70
2021/10/22 09:05:10;;;;;;;3.33;1.30;;;9.30;99.90;;;;;;5056799;28;20209;-70
2021/10/22 09:07:41;;;;;;;4.18;1.40;;;9.30;99.90;;;;;;5056332;28;20207;-70
2021/10/22 09:10:11;;;;;;;2.00;1.08;;;9.30;99.90;;;;;;5056057;28;20314;-70
2021/10/22 09:12:43;;;;;;;3.17;1.30;;;9.30;99.90;;;;;;5056486;28;20200;-70
2021/10/22 09:15:12;;;;;;;1.60;1.38;;;9.30;99.90;;;;;;5054972;28;20208;-71
2021/10/22 09:17:41;;;;;;;1.40;1.05;;;9.30;99.90;;;;;;5056447;28;20295;-71
2021/10/22 09:20:12;;;;;;;2.70;1.33;;;9.40;99.90;;;;;;5055921;28;20234;-71
2021/10/22 09:22:40;;;;;;;2.85;1.48;;;9.50;99.90;;;;;;5056846;28;20207;-70
2021/10/22 09:25:09;;;;;;;3.55;0.90;;;9.50;99.90;;;;;;5055942;28;20233;-71
2021/10/22 09:27:42;;;;;;;1.63;1.10;;;9.60;99.90;;;;;;5056189;28;20641;-71
2021/10/22 09:30:28;;;;;;;5.25;1.42;;;9.60;99.90;;;;;;5056101;28;20270;-70
2021/10/22 09:32:56;;;;;;;2.55;1.10;;;9.60;99.90;;;;;;5055488;28;20282;-70
2021/10/22 09:35:35;;;;;;;2.03;0.90;;;9.60;99.90;;;;;;5055937;28;20203;-71
2021/10/22 09:38:10;;;;;;;1.85;1.10;;;9.70;99.90;;;;;;5055617;28;20207;-71
2021/10/22 09:40:39;;;;;;;1.83;1.73;;;9.70;99.90;;;;;;5055638;28;20227;-70
2021/10/22 09:43:28;;;;;;;2.83;1.10;;;9.70;99.90;;;;;;5055170;28;20254;-70
2021/10/22 09:46:11;;;;;;;0.80;0.80;;;9.70;99.90;;;;;;5055200;28;20700;-71
2021/10/22 09:48:41;;;;;;;2.65;0.85;;;9.80;99.90;;;;;;5055205;28;20206;-71
2021/10/22 09:51:28;;;;;;;1.80;1.02;;;9.80;99.90;;;;;;5055208;28;20553;-69
2021/10/22 09:53:57;;;;;;;4.15;1.10;;;9.90;99.90;;;;;;5055983;28;20618;-71
2021/10/22 09:56:26;;;;;;;2.30;1.05;;;10.00;99.90;;;;;;5055154;28;20204;-71
2021/10/22 09:58:58;;;;;;;2.03;0.90;;;10.00;99.90;;;;;;5055037;28;20596;-71
2021/10/22 10:01:31;;;;;;;2.80;0.80;;;10.00;99.90;;;;;;5054713;28;20294;-70
2021/10/22 10:04:00;;;;;;;5.40;0.80;;;10.00;99.90;;;;;;5054772;28;20230;-70
2021/10/22 10:06:28;;;;;;;1.73;1.00;;;10.10;99.90;;;;;;5054936;28;20571;-71
2021/10/22 10:08:55;;;;;;;2.08;0.60;;;10.20;99.90;;;;;;5055268;28;20249;-71
2021/10/22 10:11:24;;;;;;;1.65;0.63;;;10.30;99.90;;;;;;5054694;28;20280;-70
2021/10/22 10:13:51;;;;;;;0.40;0.40;;;10.40;99.00;;;;;;5054663;28;20668;-71
2021/10/22 10:16:18;;;;;;;3.60;0.80;;;10.50;97.90;;;;;;5054832;28;20298;-71
2021/10/22 10:18:50;;;;;;;1.40;0.73;;;10.50;96.20;;;;;;5054785;28;20203;-70
2021/10/22 10:21:20;;;;;;;0.80;0.63;;;10.50;96.30;;;;;;5054440;28;20237;-70
2021/10/22 10:23:48;;;;;;;6.20;1.27;;;10.50;95.20;;;;;;5054612;28;21601;-71
2021/10/22 10:26:28;;;;;;;4.90;0.80;;;10.60;94.90;;;;;;5053528;28;20207;-70
2021/10/22 10:28:57;;;;;;;0.85;0.50;;;10.60;94.80;;;;;;5058648;28;20317;-71
2021/10/22 10:31:33;;;;;;;1.42;0.65;;;10.60;95.10;;;;;;5053530;28;20209;-71
2021/10/22 10:34:03;;;;;;;1.50;0.70;;;10.60;94.40;;;;;;5054035;28;20196;-71
2021/10/22 10:36:45;;;;;;;2.40;0.82;;;10.60;93.00;;;;;;5054671;28;20737;-71
2021/10/22 10:39:12;;;;;;;0.88;0.82;;;10.60;93.10;;;;;;5053464;28;20585;-71
2021/10/22 10:41:39;;;;;;;1.35;0.77;;;10.60;93.20;;;;;;5053783;28;20237;-71
2021/10/22 10:44:31;;;;;;;2.88;0.88;;;10.70;92.20;;;;;;5053715;28;20239;-71
2021/10/22 10:46:58;;;;;;;1.25;0.90;;;10.80;92.30;;;;;;5053782;28;20230;-71
2021/10/22 10:50:00;;;;;;;2.83;0.63;;;10.80;92.60;;;;;;5053258;28;20657;-71
2021/10/22 10:52:51;;;;;;;0.65;0.40;;;10.70;92.00;;;;;;5053607;28;20210;-71
2021/10/22 10:55:25;;;;;;;0.63;0.63;;;10.90;90.30;;;;;;5053133;28;20670;-71
2021/10/22 10:57:54;;;;;;;3.80;1.50;;;11.10;90.70;;;;;;5053784;28;20203;-70
2021/10/22 11:00:22;;;;;;;2.67;1.00;;;11.10;87.70;;;;;;5053727;28;20601;-70
2021/10/22 11:03:11;;;;;;;2.03;1.02;;;11.00;83.70;;;;;;5053433;28;20223;-72
2021/10/22 11:06:14;;;;;;;1.48;0.70;;;11.00;84.10;;;;;;5053648;28;20277;-71
2021/10/22 11:08:48;;;;;;;1.85;0.77;;;11.00;81.60;;;;;;5053481;28;20238;-71
2021/10/22 11:11:35;;;;;;;0.90;0.70;;;10.90;76.70;;;;;;5053375;28;20228;-72
2021/10/22 11:14:40;;;;;;;1.58;0.60;;;10.90;83.60;;;;;;5053111;28;20682;-72
2021/10/22 11:17:09;;;;;;;0.95;0.82;;;11.00;83.70;;;;;;5054149;28;20207;-71
2021/10/22 11:19:38;;;;;;;0.80;0.80;;;11.10;87.40;;;;;;5053533;28;20728;-71
2021/10/22 11:22:11;;;;;;;0.85;0.60;;;11.20;89.50;;;;;;5053435;28;20665;-69
2021/10/22 11:24:39;;;;;;;0.80;0.47;;;11.40;82.40;;;;;;5054004;28;20242;-71
2021/10/22 11:27:08;;;;;;;1.98;0.90;;;11.40;85.10;;;;;;5054427;28;20207;-72
2021/10/22 11:29:37;;;;;;;1.23;0.88;;;11.50;81.60;;;;;;5053875;28;20265;-72
2021/10/22 11:32:09;;;;;;;3.42;0.60;;;11.50;80.00;;;;;;5053903;28;20260;-71
2021/10/22 11:34:37;;;;;;;1.88;0.80;;;11.60;79.10;;;;;;5054070;28;20230;-71
2021/10/22 11:37:08;;;;;;;0.82;0.57;;;11.70;79.60;;;;;;5054494;28;20294;-71
2021/10/22 11:39:39;;;;;;;0.88;0.55;;;11.90;76.70;;;;;;5056412;28;20277;-71
2021/10/22 11:42:22;;;;;;;0.82;0.60;;;11.90;76.70;;;;;;5057289;28;20203;-70
2021/10/22 11:44:50;;;;;;;1.25;0.60;;;11.80;79.80;;;;;;5058004;28;20225;-71
2021/10/22 11:47:21;;;;;;;1.45;0.70;;;11.70;78.70;;;;;;5058055;28;20467;-72
2021/10/22 11:49:48;;;;;;;1.35;0.60;;;11.80;73.00;;;;;;5057490;28;20223;-72
2021/10/22 11:52:18;;;;;;;1.35;0.93;;;12.00;71.90;;;;;;5057049;28;20238;-71
2021/10/22 11:54:48;;;;;;;1.33;0.70;;;12.20;69.00;;;;;;5057457;28;20214;-70
2021/10/22 11:57:18;;;;;;;1.08;0.82;;;12.50;68.60;;;;;;5057137;28;20210;-71
2021/10/22 11:59:47;;;;;;;1.38;0.75;;;12.70;70.50;;;;;;5057013;28;20223;-72
2021/10/22 12:02:15;;;;;;;1.38;0.60;;;12.80;68.30;;;;;;5056641;28;20326;-72
2021/10/22 12:04:42;;;;;;;2.33;1.00;;;12.80;68.90;;;;;;5057234;28;20219;-72
2021/10/22 12:07:11;;;;;;;1.42;0.65;;;12.70;68.90;;;;;;5056530;28;20211;-72
2021/10/22 12:09:39;;;;;;;0.80;0.80;;;12.60;70.60;;;;;;5056693;28;20316;-70
2021/10/22 12:12:13;;;;;;;1.15;1.00;;;12.60;69.80;;;;;;5056148;28;20736;-70
2021/10/22 12:14:45;;;;;;;1.45;0.90;;;12.70;65.30;;;;;;5056253;28;20203;-71
2021/10/22 12:17:15;;;;;;;1.25;0.80;;;12.80;67.50;;;;;;5055975;28;20298;-71
2021/10/22 12:19:44;;;;;;;0.93;0.70;;;13.00;66.20;;;;;;5055959;28;20228;-71
2021/10/22 12:22:13;;;;;;;0.70;0.70;;;13.20;66.50;;;;;;5055759;28;20685;-72
2021/10/22 12:24:51;;;;;;;1.40;0.68;;;13.60;64.40;;;;;;5056782;28;20690;-72
2021/10/22 12:27:20;;;;;;;2.33;0.82;;;14.10;66.90;;;;;;5056622;28;20204;-74
2021/10/22 12:29:58;;;;;;;1.13;0.55;;;14.40;62.70;;;;;;5056790;28;20349;-71
2021/10/22 12:32:33;;;;;;;0.75;0.70;;;14.80;61.40;;;;;;5056647;28;20679;-71
2021/10/22 12:35:01;;;;;;;0.70;0.65;;;15.00;60.50;;;;;;5056324;28;20210;-71
2021/10/22 12:37:32;;;;;;;1.60;0.70;;;15.00;58.60;;;;;;5056416;28;20198;-71
2021/10/22 12:39:59;;;;;;;2.25;0.80;;;14.90;59.20;;;;;;5056535;28;20256;-71
2021/10/22 12:42:29;;;;;;;3.47;0.93;;;14.50;58.90;;;;;;5056989;28;20284;-72
2021/10/22 12:45:15;;;;;;;1.52;0.95;;;14.30;58.80;;;;;;5055864;28;20219;-71
2021/10/22 12:47:43;;;;;;;2.60;0.98;;;14.00;59.00;;;;;;5055755;28;20289;-68
2021/10/22 12:50:10;;;;;;;1.95;0.95;;;13.70;61.20;;;;;;5054679;28;20596;-68
2021/10/22 12:52:38;;;;;;;1.02;0.70;;;13.40;62.20;;;;;;5054558;28;20299;-68
2021/10/22 12:55:07;;;;;;;1.50;1.30;;;13.00;61.30;;;;;;5054429;28;20440;-70
2021/10/22 12:57:35;;;;;;;1.10;0.68;;;13.00;63.10;;;;;;5053725;28;20442;-73
2021/10/22 13:00:26;;;;;;;1.90;1.20;;;13.10;63.80;;;;;;5055080;28;20223;-73
2021/10/22 13:02:53;;;;;;;1.08;0.88;;;13.10;64.70;;;;;;5052415;28;20214;-73
2021/10/22 13:05:22;;;;;;;2.78;0.80;;;13.00;66.20;;;;;;5056876;28;20234;-73
2021/10/22 13:08:18;;;;;;;2.90;1.10;;;12.90;66.40;;;;;;5055492;28;20294;-74